sensor_id;sensor_type;location;lat;lon;timestamp;pressure;altitude;pressure_sealevel;temperature;humidity
55610;BME280;41486;52.502;13.486;2022-12-24T00:00:24;99782.56;;;5.24;100.00
55610;BME280;41486;52.502;13.486;2022-12-24T00:02:52;99792.56;;;5.17;100.00
55610;BME280;41486;52.502;13.486;2022-12-24T00:05:20;99791.25;;;5.11;100.00
55610;BME280;41486;52.502;13.486;2022-12-24T00:07:50;99789.44;;;5.12;100.00
55610;BME280;41486;52.502;13.486;2022-12-24T00:10:18;99787.69;;;5.12;100.00
55610;BME280;41486;52.502;13.486;2022-12-24T00:12:46;99785.91;;;5.13;100.00
55610;BME280;41486;52.502;13.486;2022-12-24T00:15:13;99789.34;;;5.13;100.00
55610;BME280;41486;52.502;13.486;2022-12-24T00:17:41;99782.97;;;5.04;100.00
55610;BME280;41486;52.502;13.486;2022-12-24T00:20:09;99790.94;;;5.16;100.00
55610;BME280;41486;52.502;13.486;2022-12-24T00:22:37;99782.78;;;5.08;100.00
55610;BME280;41486;52.502;13.486;2022-12-24T00:25:07;99778.06;;;5.00;100.00
55610;BME280;41486;52.502;13.486;2022-12-24T00:27:35;99777.03;;;5.02;100.00
55610;BME280;41486;52.502;13.486;2022-12-24T00:30:04;99778.59;;;5.05;100.00
55610;BME280;41486;52.502;13.486;2022-12-24T00:32:32;99786.31;;;4.94;100.00
55610;BME280;41486;52.502;13.486;2022-12-24T00:35:00;99779.56;;;5.04;100.00
55610;BME280;41486;52.502;13.486;2022-12-24T00:37:29;99771.28;;;4.97;100.00
55610;BME280;41486;52.502;13.486;2022-12-24T00:39:56;99781.72;;;4.97;100.00
55610;BME280;41486;52.502;13.486;2022-12-24T00:42:26;99779.22;;;4.96;100.00
55610;BME280;41486;52.502;13.486;2022-12-24T00:44:54;99781.53;;;5.00;100.00
55610;BME280;41486;52.502;13.486;2022-12-24T00:47:21;99787.06;;;5.09;100.00
55610;BME280;41486;52.502;13.486;2022-12-24T00:49:49;99793.41;;;5.04;100.00
55610;BME280;41486;52.502;13.486;2022-12-24T00:52:17;99792.28;;;5.09;100.00
55610;BME280;41486;52.502;13.486;2022-12-24T00:54:45;99796.75;;;5.07;100.00
55610;BME280;41486;52.502;13.486;2022-12-24T00:57:13;99797.50;;;5.09;100.00
55610;BME280;41486;52.502;13.486;2022-12-24T00:59:42;99805.81;;;5.01;100.00
55610;BME280;41486;52.502;13.486;2022-12-24T01:02:10;99803.66;;;5.08;100.00
55610;BME280;41486;52.502;13.486;2022-12-24T01:04:38;99812.00;;;5.13;100.00
55610;BME280;41486;52.502;13.486;2022-12-24T01:07:23;99805.00;;;5.13;100.00
55610;BME280;41486;52.502;13.486;2022-12-24T01:09:51;99806.97;;;5.10;100.00
55610;BME280;41486;52.502;13.486;2022-12-24T01:12:19;99817.41;;;5.10;100.00
55610;BME280;41486;52.502;13.486;2022-12-24T01:14:48;99810.84;;;5.04;100.00
55610;BME280;41486;52.502;13.486;2022-12-24T01:17:16;99821.91;;;5.08;100.00
55610;BME280;41486;52.502;13.486;2022-12-24T01:19:44;99827.13;;;5.08;100.00
55610;BME280;41486;52.502;13.486;2022-12-24T01:22:12;99826.72;;;5.14;100.00
55610;BME280;41486;52.502;13.486;2022-12-24T01:24:41;99827.63;;;5.13;100.00
55610;BME280;41486;52.502;13.486;2022-12-24T01:27:09;99826.72;;;5.14;100.00
55610;BME280;41486;52.502;13.486;2022-12-24T01:29:37;99825.63;;;5.03;100.00
55610;BME280;41486;52.502;13.486;2022-12-24T01:32:06;99823.66;;;5.07;100.00
55610;BME280;41486;52.502;13.486;2022-12-24T01:34:34;99838.19;;;5.11;100.00
55610;BME280;41486;52.502;13.486;2022-12-24T01:37:02;99830.13;;;5.14;100.00
55610;BME280;41486;52.502;13.486;2022-12-24T01:39:30;99834.53;;;5.14;100.00
55610;BME280;41486;52.502;13.486;2022-12-24T01:41:58;99829.09;;;5.04;100.00
55610;BME280;41486;52.502;13.486;2022-12-24T01:44:47;99833.59;;;5.15;100.00
55610;BME280;41486;52.502;13.486;2022-12-24T01:47:21;99833.59;;;5.15;100.00
55610;BME280;41486;52.502;13.486;2022-12-24T01:49:53;99836.09;;;5.16;100.00
55610;BME280;41486;52.502;13.486;2022-12-24T01:52:26;99843.28;;;5.13;100.00
55610;BME280;41486;52.502;13.486;2022-12-24T01:54:57;99845.91;;;5.13;100.00
55610;BME280;41486;52.502;13.486;2022-12-24T01:57:29;99856.75;;;5.07;100.00
55610;BME280;41486;52.502;13.486;2022-12-24T02:00:03;99859.03;;;5.11;100.00
55610;BME280;41486;52.502;13.486;2022-12-24T02:02:33;99865.09;;;5.12;100.00
55610;BME280;41486;52.502;13.486;2022-12-24T02:05:04;99854.88;;;5.21;100.00
55610;BME280;41486;52.502;13.486;2022-12-24T02:07:35;99859.91;;;5.25;100.00
55610;BME280;41486;52.502;13.486;2022-12-24T02:10:06;99866.91;;;5.24;100.00
55610;BME280;41486;52.502;13.486;2022-12-24T02:12:35;99862.50;;;5.25;100.00
55610;BME280;41486;52.502;13.486;2022-12-24T02:15:06;99872.53;;;5.31;100.00
55610;BME280;41486;52.502;13.486;2022-12-24T02:17:48;99873.75;;;5.25;100.00
55610;BME280;41486;52.502;13.486;2022-12-24T02:20:41;99884.19;;;5.25;100.00
55610;BME280;41486;52.502;13.486;2022-12-24T02:23:32;99878.78;;;5.28;100.00
55610;BME280;41486;52.502;13.486;2022-12-24T02:26:17;99885.78;;;5.28;100.00
55610;BME280;41486;52.502;13.486;2022-12-24T02:29:13;99898.72;;;5.29;100.00
55610;BME280;41486;52.502;13.486;2022-12-24T02:31:50;99900.41;;;5.30;100.00
55610;BME280;41486;52.502;13.486;2022-12-24T02:34:26;99909.03;;;5.31;100.00
55610;BME280;41486;52.502;13.486;2022-12-24T02:37:00;99903.72;;;5.19;100.00
55610;BME280;41486;52.502;13.486;2022-12-24T02:39:36;99904.53;;;5.20;100.00
55610;BME280;41486;52.502;13.486;2022-12-24T02:42:07;99914.44;;;5.15;100.00
55610;BME280;41486;52.502;13.486;2022-12-24T02:44:41;99916.53;;;5.22;100.00
55610;BME280;41486;52.502;13.486;2022-12-24T02:47:13;99917.09;;;5.28;100.00
55610;BME280;41486;52.502;13.486;2022-12-24T02:49:44;99920.09;;;5.34;100.00
55610;BME280;41486;52.502;13.486;2022-12-24T02:52:27;99923.75;;;5.32;100.00
55610;BME280;41486;52.502;13.486;2022-12-24T02:54:58;99917.16;;;5.26;100.00
55610;BME280;41486;52.502;13.486;2022-12-24T02:57:36;99926.34;;;5.19;100.00
55610;BME280;41486;52.502;13.486;2022-12-24T03:00:11;99928.00;;;5.20;100.00
55610;BME280;41486;52.502;13.486;2022-12-24T03:02:54;99933.03;;;5.23;100.00
55610;BME280;41486;52.502;13.486;2022-12-24T03:05:37;99933.03;;;5.23;100.00
55610;BME280;41486;52.502;13.486;2022-12-24T03:08:13;99936.19;;;5.28;100.00
55610;BME280;41486;52.502;13.486;2022-12-24T03:10:49;99936.47;;;5.24;100.00
55610;BME280;41486;52.502;13.486;2022-12-24T03:13:19;99936.38;;;5.25;100.00
55610;BME280;41486;52.502;13.486;2022-12-24T03:15:49;99945.56;;;5.31;100.00
55610;BME280;41486;52.502;13.486;2022-12-24T03:18:23;99947.44;;;5.16;100.00
55610;BME280;41486;52.502;13.486;2022-12-24T03:20:55;99951.38;;;5.21;100.00
55610;BME280;41486;52.502;13.486;2022-12-24T03:23:25;99946.09;;;5.23;100.00
55610;BME280;41486;52.502;13.486;2022-12-24T03:25:53;99948.25;;;5.16;100.00
55610;BME280;41486;52.502;13.486;2022-12-24T03:28:25;99956.81;;;5.18;100.00
55610;BME280;41486;52.502;13.486;2022-12-24T03:30:54;99954.41;;;5.15;100.00
55610;BME280;41486;52.502;13.486;2022-12-24T03:33:24;99967.25;;;5.18;100.00
55610;BME280;41486;52.502;13.486;2022-12-24T03:35:52;99959.44;;;5.18;100.00
55610;BME280;41486;52.502;13.486;2022-12-24T03:38:20;99959.31;;;5.20;100.00
55610;BME280;41486;52.502;13.486;2022-12-24T03:40:48;99968.28;;;5.16;100.00
55610;BME280;41486;52.502;13.486;2022-12-24T03:43:16;99972.47;;;5.18;100.00
55610;BME280;41486;52.502;13.486;2022-12-24T03:45:44;99972.88;;;5.25;100.00
55610;BME280;41486;52.502;13.486;2022-12-24T03:48:12;99980.41;;;5.30;100.00
55610;BME280;41486;52.502;13.486;2022-12-24T03:50:41;99984.03;;;5.14;100.00
55610;BME280;41486;52.502;13.486;2022-12-24T03:53:09;99987.47;;;5.15;100.00
55610;BME280;41486;52.502;13.486;2022-12-24T03:55:38;99994.03;;;5.08;100.00
55610;BME280;41486;52.502;13.486;2022-12-24T03:58:06;99997.34;;;5.10;100.00
55610;BME280;41486;52.502;13.486;2022-12-24T04:00:34;100002.91;;;5.18;100.00
55610;BME280;41486;52.502;13.486;2022-12-24T04:03:02;100001.63;;;5.11;100.00
55610;BME280;41486;52.502;13.486;2022-12-24T04:05:30;100014.59;;;5.12;100.00
55610;BME280;41486;52.502;13.486;2022-12-24T04:08:00;100012.00;;;5.12;100.00
55610;BME280;41486;52.502;13.486;2022-12-24T04:10:28;100003.81;;;5.04;100.00
55610;BME280;41486;52.502;13.486;2022-12-24T04:12:56;100006.50;;;5.02;100.00
55610;BME280;41486;52.502;13.486;2022-12-24T04:15:24;100011.34;;;5.09;100.00
55610;BME280;41486;52.502;13.486;2022-12-24T04:17:52;100012.28;;;5.08;100.00
55610;BME280;41486;52.502;13.486;2022-12-24T04:20:20;100005.19;;;5.10;100.00
55610;BME280;41486;52.502;13.486;2022-12-24T04:22:48;99993.69;;;4.99;100.00
55610;BME280;41486;52.502;13.486;2022-12-24T04:25:17;99997.97;;;4.86;100.00
55610;BME280;41486;52.502;13.486;2022-12-24T04:27:45;100002.25;;;4.87;100.00
55610;BME280;41486;52.502;13.486;2022-12-24T04:30:15;100011.41;;;4.80;100.00
55610;BME280;41486;52.502;13.486;2022-12-24T04:32:44;100022.66;;;4.95;100.00
55610;BME280;41486;52.502;13.486;2022-12-24T04:35:11;100020.41;;;5.03;100.00
55610;BME280;41486;52.502;13.486;2022-12-24T04:37:39;100020.03;;;4.95;100.00
55610;BME280;41486;52.502;13.486;2022-12-24T04:40:08;100033.50;;;5.01;100.00
55610;BME280;41486;52.502;13.486;2022-12-24T04:42:39;100036.06;;;4.88;100.00
55610;BME280;41486;52.502;13.486;2022-12-24T04:45:08;100048.78;;;4.93;100.00
55610;BME280;41486;52.502;13.486;2022-12-24T04:47:36;100057.09;;;5.00;100.00
55610;BME280;41486;52.502;13.486;2022-12-24T04:50:05;100054.50;;;4.85;100.00
55610;BME280;41486;52.502;13.486;2022-12-24T04:52:33;100060.19;;;4.92;100.00
55610;BME280;41486;52.502;13.486;2022-12-24T04:55:01;100070.22;;;4.98;100.00
55610;BME280;41486;52.502;13.486;2022-12-24T04:57:30;100066.50;;;4.88;100.00
55610;BME280;41486;52.502;13.486;2022-12-24T04:59:59;100066.75;;;4.98;100.00
55610;BME280;41486;52.502;13.486;2022-12-24T05:02:27;100067.38;;;4.88;100.00
55610;BME280;41486;52.502;13.486;2022-12-24T05:04:55;100075.19;;;4.88;100.00
55610;BME280;41486;52.502;13.486;2022-12-24T05:07:23;100077.47;;;4.93;100.00
55610;BME280;41486;52.502;13.486;2022-12-24T05:09:51;100076.09;;;5.02;100.00
55610;BME280;41486;52.502;13.486;2022-12-24T05:12:22;100076.47;;;4.96;100.00
55610;BME280;41486;52.502;13.486;2022-12-24T05:14:50;100076.28;;;4.99;100.00
55610;BME280;41486;52.502;13.486;2022-12-24T05:17:19;100081.41;;;5.00;100.00
55610;BME280;41486;52.502;13.486;2022-12-24T05:19:47;100081.44;;;5.13;100.00
55610;BME280;41486;52.502;13.486;2022-12-24T05:22:15;100073.63;;;5.28;100.00
55610;BME280;41486;52.502;13.486;2022-12-24T05:25:00;100073.84;;;5.10;100.00
55610;BME280;41486;52.502;13.486;2022-12-24T05:27:46;100075.84;;;5.34;100.00
55610;BME280;41486;52.502;13.486;2022-12-24T05:30:17;100085.94;;;5.11;100.00
55610;BME280;41486;52.502;13.486;2022-12-24T05:32:46;100081.88;;;4.93;100.00
55610;BME280;41486;52.502;13.486;2022-12-24T05:35:14;100076.19;;;5.00;100.00
55610;BME280;41486;52.502;13.486;2022-12-24T05:37:42;100072.84;;;4.98;100.00
55610;BME280;41486;52.502;13.486;2022-12-24T05:40:11;100071.13;;;5.12;100.00
55610;BME280;41486;52.502;13.486;2022-12-24T05:42:39;100084.38;;;5.09;100.00
55610;BME280;41486;52.502;13.486;2022-12-24T05:45:08;100087.06;;;5.07;100.00
55610;BME280;41486;52.502;13.486;2022-12-24T05:47:37;100078.56;;;5.18;100.00
55610;BME280;41486;52.502;13.486;2022-12-24T05:50:11;100083.34;;;4.97;100.00
55610;BME280;41486;52.502;13.486;2022-12-24T05:52:39;100096.69;;;4.92;100.00
55610;BME280;41486;52.502;13.486;2022-12-24T05:55:08;100100.59;;;4.99;100.00
55610;BME280;41486;52.502;13.486;2022-12-24T05:57:36;100097.97;;;4.85;100.00
55610;BME280;41486;52.502;13.486;2022-12-24T06:00:08;100104.41;;;4.94;100.00
55610;BME280;41486;52.502;13.486;2022-12-24T06:02:37;100103.91;;;5.01;100.00
55610;BME280;41486;52.502;13.486;2022-12-24T06:05:06;100116.13;;;5.01;100.00
55610;BME280;41486;52.502;13.486;2022-12-24T06:07:35;100112.41;;;4.90;100.00
55610;BME280;41486;52.502;13.486;2022-12-24T06:10:04;100108.41;;;4.99;100.00
55610;BME280;41486;52.502;13.486;2022-12-24T06:12:32;100116.91;;;4.88;100.00
55610;BME280;41486;52.502;13.486;2022-12-24T06:15:00;100115.75;;;4.93;100.00
55610;BME280;41486;52.502;13.486;2022-12-24T06:17:28;100120.06;;;4.94;100.00
55610;BME280;41486;52.502;13.486;2022-12-24T06:19:56;100118.34;;;5.07;100.00
55610;BME280;41486;52.502;13.486;2022-12-24T06:22:24;100125.34;;;5.21;100.00
55610;BME280;41486;52.502;13.486;2022-12-24T06:24:53;100124.41;;;4.93;100.00
55610;BME280;41486;52.502;13.486;2022-12-24T06:27:21;100131.13;;;4.97;100.00
55610;BME280;41486;52.502;13.486;2022-12-24T06:29:49;100135.03;;;5.04;100.00
55610;BME280;41486;52.502;13.486;2022-12-24T06:32:17;100131.69;;;4.88;100.00
55610;BME280;41486;52.502;13.486;2022-12-24T06:34:46;100134.09;;;5.05;100.00
55610;BME280;41486;52.502;13.486;2022-12-24T06:37:14;100140.34;;;5.03;100.00
55610;BME280;41486;52.502;13.486;2022-12-24T06:39:44;100155.31;;;4.70;100.00
55610;BME280;41486;52.502;13.486;2022-12-24T06:42:13;100161.47;;;4.69;100.00
55610;BME280;41486;52.502;13.486;2022-12-24T06:44:41;100169.75;;;4.76;100.00
55610;BME280;41486;52.502;13.486;2022-12-24T06:47:09;100166.06;;;4.80;100.00
55610;BME280;41486;52.502;13.486;2022-12-24T06:49:37;100168.75;;;4.93;100.00
55610;BME280;41486;52.502;13.486;2022-12-24T06:52:05;100167.47;;;5.00;100.00
55610;BME280;41486;52.502;13.486;2022-12-24T06:54:33;100173.22;;;4.91;100.00
55610;BME280;41486;52.502;13.486;2022-12-24T06:57:01;100171.81;;;4.85;100.00
55610;BME280;41486;52.502;13.486;2022-12-24T06:59:30;100173.94;;;4.79;100.00
55610;BME280;41486;52.502;13.486;2022-12-24T07:01:58;100175.84;;;4.77;100.00
55610;BME280;41486;52.502;13.486;2022-12-24T07:04:26;100179.03;;;4.66;100.00
55610;BME280;41486;52.502;13.486;2022-12-24T07:06:54;100181.50;;;4.83;100.00
55610;BME280;41486;52.502;13.486;2022-12-24T07:09:23;100179.53;;;4.87;100.00
55610;BME280;41486;52.502;13.486;2022-12-24T07:11:50;100183.56;;;4.93;100.00
55610;BME280;41486;52.502;13.486;2022-12-24T07:14:18;100193.72;;;4.97;100.00
55610;BME280;41486;52.502;13.486;2022-12-24T07:16:48;100198.25;;;4.79;100.00
55610;BME280;41486;52.502;13.486;2022-12-24T07:19:24;100201.97;;;4.89;100.00
55610;BME280;41486;52.502;13.486;2022-12-24T07:21:52;100203.66;;;4.76;100.00
55610;BME280;41486;52.502;13.486;2022-12-24T07:24:20;100214.72;;;4.80;100.00
55610;BME280;41486;52.502;13.486;2022-12-24T07:26:48;100213.06;;;4.79;100.00
55610;BME280;41486;52.502;13.486;2022-12-24T07:29:16;100227.50;;;4.84;100.00
55610;BME280;41486;52.502;13.486;2022-12-24T07:31:44;100233.19;;;4.77;100.00
55610;BME280;41486;52.502;13.486;2022-12-24T07:34:13;100227.78;;;4.80;100.00
55610;BME280;41486;52.502;13.486;2022-12-24T07:36:41;100230.09;;;4.84;100.00
55610;BME280;41486;52.502;13.486;2022-12-24T07:39:09;100238.03;;;4.97;100.00
55610;BME280;41486;52.502;13.486;2022-12-24T07:41:37;100233.84;;;4.80;100.00
55610;BME280;41486;52.502;13.486;2022-12-24T07:44:10;100242.47;;;4.81;100.00
55610;BME280;41486;52.502;13.486;2022-12-24T07:46:39;100227.78;;;4.94;100.00
55610;BME280;41486;52.502;13.486;2022-12-24T07:49:07;100234.13;;;5.04;100.00
55610;BME280;41486;52.502;13.486;2022-12-24T07:51:36;100243.81;;;4.88;100.00
55610;BME280;41486;52.502;13.486;2022-12-24T07:54:04;100251.72;;;4.86;100.00
55610;BME280;41486;52.502;13.486;2022-12-24T07:56:33;100262.38;;;4.67;100.00
55610;BME280;41486;52.502;13.486;2022-12-24T07:59:01;100263.34;;;4.81;100.00
55610;BME280;41486;52.502;13.486;2022-12-24T08:01:29;100262.41;;;4.82;100.00
55610;BME280;41486;52.502;13.486;2022-12-24T08:03:57;100267.81;;;4.79;100.00
55610;BME280;41486;52.502;13.486;2022-12-24T08:06:25;100265.13;;;4.80;100.00
55610;BME280;41486;52.502;13.486;2022-12-24T08:08:54;100261.88;;;4.91;100.00
55610;BME280;41486;52.502;13.486;2022-12-24T08:11:22;100258.09;;;5.11;100.00
55610;BME280;41486;52.502;13.486;2022-12-24T08:13:50;100262.91;;;4.88;100.00
55610;BME280;41486;52.502;13.486;2022-12-24T08:16:18;100261.34;;;5.00;100.00
55610;BME280;41486;52.502;13.486;2022-12-24T08:18:46;100272.19;;;4.78;100.00
55610;BME280;41486;52.502;13.486;2022-12-24T08:21:14;100269.84;;;4.73;100.00
55610;BME280;41486;52.502;13.486;2022-12-24T08:23:42;100270.22;;;4.67;100.00
55610;BME280;41486;52.502;13.486;2022-12-24T08:26:12;100271.59;;;4.73;100.00
55610;BME280;41486;52.502;13.486;2022-12-24T08:28:40;100265.69;;;4.85;100.00
55610;BME280;41486;52.502;13.486;2022-12-24T08:31:08;100271.06;;;4.82;100.00
55610;BME280;41486;52.502;13.486;2022-12-24T08:33:36;100275.66;;;4.93;100.00
55610;BME280;41486;52.502;13.486;2022-12-24T08:36:05;100281.34;;;4.69;100.00
55610;BME280;41486;52.502;13.486;2022-12-24T08:38:33;100283.41;;;4.64;100.00
55610;BME280;41486;52.502;13.486;2022-12-24T08:41:01;100283.38;;;4.80;100.00
55610;BME280;41486;52.502;13.486;2022-12-24T08:43:30;100283.38;;;4.80;100.00
55610;BME280;41486;52.502;13.486;2022-12-24T08:46:01;100290.44;;;4.78;100.00
55610;BME280;41486;52.502;13.486;2022-12-24T08:48:33;100294.88;;;4.76;100.00
55610;BME280;41486;52.502;13.486;2022-12-24T08:51:05;100287.63;;;4.81;100.00
55610;BME280;41486;52.502;13.486;2022-12-24T08:53:33;100295.31;;;4.99;100.00
55610;BME280;41486;52.502;13.486;2022-12-24T08:56:03;100296.06;;;5.01;100.00
55610;BME280;41486;52.502;13.486;2022-12-24T08:58:33;100307.56;;;4.82;100.00
55610;BME280;41486;52.502;13.486;2022-12-24T09:01:09;100306.88;;;4.95;100.00
55610;BME280;41486;52.502;13.486;2022-12-24T09:03:38;100302.22;;;5.14;100.00
55610;BME280;41486;52.502;13.486;2022-12-24T09:06:07;100304.91;;;4.98;100.00
55610;BME280;41486;52.502;13.486;2022-12-24T09:08:35;100305.75;;;4.99;100.00
55610;BME280;41486;52.502;13.486;2022-12-24T09:11:04;100311.44;;;4.91;100.00
55610;BME280;41486;52.502;13.486;2022-12-24T09:13:34;100317.94;;;4.84;100.00
55610;BME280;41486;52.502;13.486;2022-12-24T09:16:03;100333.56;;;4.84;100.00
55610;BME280;41486;52.502;13.486;2022-12-24T09:18:31;100332.16;;;4.78;100.00
55610;BME280;41486;52.502;13.486;2022-12-24T09:20:59;100333.25;;;5.04;100.00
55610;BME280;41486;52.502;13.486;2022-12-24T09:23:28;100337.22;;;4.96;100.00
55610;BME280;41486;52.502;13.486;2022-12-24T09:25:56;100338.72;;;5.00;100.00
55610;BME280;41486;52.502;13.486;2022-12-24T09:28:24;100337.00;;;5.15;100.00
55610;BME280;41486;52.502;13.486;2022-12-24T09:30:58;100344.06;;;5.13;100.00
55610;BME280;41486;52.502;13.486;2022-12-24T09:33:27;100350.94;;;4.99;100.00
55610;BME280;41486;52.502;13.486;2022-12-24T09:35:55;100343.66;;;5.04;100.00
55610;BME280;41486;52.502;13.486;2022-12-24T09:38:23;100347.81;;;5.09;100.00
55610;BME280;41486;52.502;13.486;2022-12-24T09:40:52;100347.22;;;5.03;100.00
55610;BME280;41486;52.502;13.486;2022-12-24T09:43:22;100359.88;;;5.10;100.00
55610;BME280;41486;52.502;13.486;2022-12-24T09:46:03;100363.63;;;5.05;100.00
55610;BME280;41486;52.502;13.486;2022-12-24T09:48:35;100380.44;;;5.00;100.00
55610;BME280;41486;52.502;13.486;2022-12-24T09:51:08;100386.31;;;5.03;100.00
55610;BME280;41486;52.502;13.486;2022-12-24T09:53:39;100388.44;;;4.97;100.00
55610;BME280;41486;52.502;13.486;2022-12-24T09:56:12;100392.41;;;5.04;100.00
55610;BME280;41486;52.502;13.486;2022-12-24T09:58:44;100388.50;;;5.11;100.00
55610;BME280;41486;52.502;13.486;2022-12-24T10:01:15;100385.31;;;5.06;100.00
55610;BME280;41486;52.502;13.486;2022-12-24T10:03:44;100391.78;;;5.15;100.00
55610;BME280;41486;52.502;13.486;2022-12-24T10:06:15;100407.44;;;4.99;100.00
55610;BME280;41486;52.502;13.486;2022-12-24T10:09:04;100403.25;;;4.96;100.00
55610;BME280;41486;52.502;13.486;2022-12-24T10:11:41;100411.31;;;5.08;100.00
55610;BME280;41486;52.502;13.486;2022-12-24T10:14:23;100413.00;;;5.09;100.00
55610;BME280;41486;52.502;13.486;2022-12-24T10:17:00;100414.84;;;5.07;100.00
55610;BME280;41486;52.502;13.486;2022-12-24T10:19:40;100413.88;;;5.24;100.00
55610;BME280;41486;52.502;13.486;2022-12-24T10:22:17;100410.31;;;5.10;100.00
55610;BME280;41486;52.502;13.486;2022-12-24T10:24:52;100421.06;;;5.34;100.00
55610;BME280;41486;52.502;13.486;2022-12-24T10:27:25;100424.03;;;5.28;100.00
55610;BME280;41486;52.502;13.486;2022-12-24T10:30:01;100427.28;;;5.17;100.00
55610;BME280;41486;52.502;13.486;2022-12-24T10:32:32;100420.78;;;5.25;100.00
55610;BME280;41486;52.502;13.486;2022-12-24T10:35:07;100426.78;;;5.41;100.00
55610;BME280;41486;52.502;13.486;2022-12-24T10:37:45;100439.44;;;5.33;100.00
55610;BME280;41486;52.502;13.486;2022-12-24T10:40:21;100441.00;;;5.51;100.00
55610;BME280;41486;52.502;13.486;2022-12-24T10:42:51;100443.38;;;5.40;100.00
55610;BME280;41486;52.502;13.486;2022-12-24T10:45:20;100446.63;;;5.44;100.00
55610;BME280;41486;52.502;13.486;2022-12-24T10:47:54;100444.44;;;5.52;100.00
55610;BME280;41486;52.502;13.486;2022-12-24T10:50:26;100456.66;;;5.51;100.00
55610;BME280;41486;52.502;13.486;2022-12-24T10:53:00;100457.13;;;5.58;100.00
55610;BME280;41486;52.502;13.486;2022-12-24T10:55:31;100456.59;;;5.82;100.00
55610;BME280;41486;52.502;13.486;2022-12-24T10:58:01;100460.84;;;5.99;100.00
55610;BME280;41486;52.502;13.486;2022-12-24T11:00:31;100452.09;;;6.14;100.00
55610;BME280;41486;52.502;13.486;2022-12-24T11:03:20;100452.28;;;6.40;100.00
55610;BME280;41486;52.502;13.486;2022-12-24T11:06:03;100467.31;;;6.37;100.00
55610;BME280;41486;52.502;13.486;2022-12-24T11:08:31;100467.34;;;6.50;100.00
55610;BME280;41486;52.502;13.486;2022-12-24T11:11:01;100470.69;;;6.66;100.00
55610;BME280;41486;52.502;13.486;2022-12-24T11:13:33;100474.25;;;6.65;100.00
55610;BME280;41486;52.502;13.486;2022-12-24T11:16:07;100470.41;;;6.71;100.00
55610;BME280;41486;52.502;13.486;2022-12-24T11:18:42;100468.25;;;6.77;100.00
55610;BME280;41486;52.502;13.486;2022-12-24T11:21:23;100470.97;;;6.76;100.00
55610;BME280;41486;52.502;13.486;2022-12-24T11:23:54;100469.66;;;6.83;100.00
55610;BME280;41486;52.502;13.486;2022-12-24T11:26:26;100477.50;;;6.83;100.00
55610;BME280;41486;52.502;13.486;2022-12-24T11:29:11;100473.44;;;6.92;100.00
55610;BME280;41486;52.502;13.486;2022-12-24T11:31:40;100471.63;;;7.07;100.00
55610;BME280;41486;52.502;13.486;2022-12-24T11:34:22;100473.66;;;7.16;100.00
55610;BME280;41486;52.502;13.486;2022-12-24T11:36:52;100475.72;;;7.11;100.00
55610;BME280;41486;52.502;13.486;2022-12-24T11:39:23;100484.78;;;7.05;100.00
55610;BME280;41486;52.502;13.486;2022-12-24T11:41:52;100486.00;;;7.14;100.00
55610;BME280;41486;52.502;13.486;2022-12-24T11:44:24;100479.91;;;7.14;100.00
55610;BME280;41486;52.502;13.486;2022-12-24T11:46:53;100485.66;;;7.06;100.00
55610;BME280;41486;52.502;13.486;2022-12-24T11:49:26;100488.16;;;7.07;100.00
55610;BME280;41486;52.502;13.486;2022-12-24T11:52:11;100496.50;;;7.00;100.00
55610;BME280;41486;52.502;13.486;2022-12-24T11:54:50;100502.38;;;7.03;100.00
55610;BME280;41486;52.502;13.486;2022-12-24T11:57:23;100501.34;;;7.06;100.00
55610;BME280;41486;52.502;13.486;2022-12-24T11:59:54;100501.81;;;7.25;100.00
55610;BME280;41486;52.502;13.486;2022-12-24T12:02:26;100505.41;;;7.24;100.00
55610;BME280;41486;52.502;13.486;2022-12-24T12:04:58;100510.19;;;7.18;100.00
55610;BME280;41486;52.502;13.486;2022-12-24T12:07:32;100505.19;;;7.28;100.00
55610;BME280;41486;52.502;13.486;2022-12-24T12:10:04;100512.75;;;7.32;100.00
55610;BME280;41486;52.502;13.486;2022-12-24T12:12:35;100505.09;;;7.29;100.00
55610;BME280;41486;52.502;13.486;2022-12-24T12:15:11;100511.19;;;7.30;100.00
55610;BME280;41486;52.502;13.486;2022-12-24T12:17:43;100508.50;;;7.17;100.00
55610;BME280;41486;52.502;13.486;2022-12-24T12:20:20;100518.56;;;7.23;100.00
55610;BME280;41486;52.502;13.486;2022-12-24T12:22:53;100517.34;;;7.29;100.00
55610;BME280;41486;52.502;13.486;2022-12-24T12:25:29;100517.34;;;7.29;100.00
55610;BME280;41486;52.502;13.486;2022-12-24T12:27:59;100520.19;;;7.38;100.00
55610;BME280;41486;52.502;13.486;2022-12-24T12:30:29;100514.06;;;7.52;100.00
55610;BME280;41486;52.502;13.486;2022-12-24T12:33:02;100515.34;;;7.60;100.00
55610;BME280;41486;52.502;13.486;2022-12-24T12:35:37;100524.44;;;7.54;100.00
55610;BME280;41486;52.502;13.486;2022-12-24T12:38:10;100528.09;;;7.51;100.00
55610;BME280;41486;52.502;13.486;2022-12-24T12:41:07;100532.91;;;7.45;100.00
55610;BME280;41486;52.502;13.486;2022-12-24T12:44:14;100533.28;;;7.38;100.00
55610;BME280;41486;52.502;13.486;2022-12-24T12:46:57;100534.72;;;7.57;100.00
55610;BME280;41486;52.502;13.486;2022-12-24T12:49:38;100538.50;;;7.53;100.00
55610;BME280;41486;52.502;13.486;2022-12-24T12:52:18;100541.53;;;7.60;100.00
55610;BME280;41486;52.502;13.486;2022-12-24T12:55:00;100547.34;;;7.50;100.00
55610;BME280;41486;52.502;13.486;2022-12-24T12:57:35;100554.53;;;7.74;100.00
55610;BME280;41486;52.502;13.486;2022-12-24T13:00:07;100557.69;;;7.66;100.00
55610;BME280;41486;52.502;13.486;2022-12-24T13:02:50;100548.16;;;7.65;100.00